createdAt,value
2022-07-25T00:02:24.133Z,24.44
2022-07-25T00:04:52.383Z,24.45
2022-07-25T00:07:24.936Z,24.51
2022-07-25T00:09:53.134Z,24.54
2022-07-25T00:12:22.140Z,24.54
2022-07-25T00:14:50.256Z,24.57
2022-07-25T00:17:18.310Z,24.49
2022-07-25T00:19:46.415Z,24.46
2022-07-25T00:22:14.428Z,24.42
2022-07-25T00:24:43.904Z,24.37
2022-07-25T00:27:11.950Z,24.37
2022-07-25T00:29:40.367Z,24.37
2022-07-25T00:32:08.661Z,24.40
2022-07-25T00:34:36.770Z,24.41
2022-07-25T00:37:04.851Z,24.30
2022-07-25T00:39:33.077Z,24.26
2022-07-25T00:42:05.997Z,24.24
2022-07-25T00:44:34.935Z,24.22
2022-07-25T00:47:03.354Z,24.15
2022-07-25T00:49:31.575Z,24.16
2022-07-25T00:51:59.880Z,24.15
2022-07-25T00:54:28.010Z,24.06
2022-07-25T00:56:56.372Z,24.04
2022-07-25T00:59:26.305Z,23.97
2022-07-25T01:01:54.669Z,23.97
2022-07-25T01:04:22.900Z,24.02
2022-07-25T01:06:51.160Z,23.95
2022-07-25T01:09:21.404Z,23.92
2022-07-25T01:11:49.572Z,23.88
2022-07-25T01:14:17.700Z,23.88
2022-07-25T01:16:47.129Z,23.91
2022-07-25T01:19:17.029Z,23.86
2022-07-25T01:21:46.573Z,23.81
2022-07-25T01:24:14.789Z,23.77
2022-07-25T01:26:42.994Z,23.77
2022-07-25T01:29:11.063Z,23.78
2022-07-25T01:31:39.286Z,23.84
2022-07-25T01:34:07.764Z,23.81
2022-07-25T01:36:36.042Z,23.81
2022-07-25T01:39:05.662Z,23.76
2022-07-25T01:41:33.784Z,23.72
2022-07-25T01:44:01.937Z,23.75
2022-07-25T01:46:30.149Z,23.76
2022-07-25T01:48:58.541Z,23.77
2022-07-25T01:51:26.677Z,23.75
2022-07-25T01:53:55.454Z,23.77
2022-07-25T01:56:24.932Z,23.82
2022-07-25T01:58:53.047Z,23.82
2022-07-25T02:03:50.518Z,23.84
2022-07-25T02:06:19.634Z,23.84
2022-07-25T02:08:47.921Z,23.85
2022-07-25T02:11:16.273Z,23.92
2022-07-25T02:13:45.738Z,23.92
2022-07-25T02:16:14.382Z,23.93
2022-07-25T02:18:42.554Z,23.95
2022-07-25T02:21:13.769Z,23.98
2022-07-25T02:23:43.399Z,23.99
2022-07-25T02:26:12.618Z,24.00
2022-07-25T02:28:41.879Z,24.03
2022-07-25T02:31:11.452Z,24.04
2022-07-25T02:33:39.667Z,24.03
2022-07-25T02:36:09.368Z,24.08
2022-07-25T02:38:39.117Z,24.12
2022-07-25T02:41:07.926Z,24.16
2022-07-25T02:43:35.994Z,24.10
2022-07-25T02:46:04.222Z,24.10
2022-07-25T02:48:33.912Z,24.05
2022-07-25T02:51:02.037Z,23.98
2022-07-25T02:53:55.492Z,23.84
2022-07-25T02:56:18.721Z,23.72
2022-07-25T02:58:49.488Z,23.72
2022-07-25T03:01:17.671Z,23.73
2022-07-25T03:03:47.288Z,23.69
2022-07-25T03:06:15.666Z,23.66
2022-07-25T03:08:43.745Z,23.63
2022-07-25T03:11:12.921Z,23.57
2022-07-25T03:13:41.121Z,23.49
2022-07-25T03:16:09.912Z,23.48
2022-07-25T03:18:38.165Z,23.47
2022-07-25T03:21:08.413Z,23.46
2022-07-25T03:23:36.522Z,23.37
2022-07-25T03:26:04.693Z,23.33
2022-07-25T03:28:32.835Z,23.35
2022-07-25T03:31:00.952Z,23.34
2022-07-25T03:33:29.264Z,23.26
2022-07-25T03:35:57.477Z,23.24
2022-07-25T03:38:26.911Z,23.27
2022-07-25T03:40:55.119Z,23.23
2022-07-25T03:43:23.196Z,23.20
2022-07-25T03:45:51.302Z,23.20
2022-07-25T03:48:19.455Z,23.22
2022-07-25T03:50:47.536Z,23.20
2022-07-25T03:53:20.067Z,23.22
2022-07-25T03:55:49.549Z,23.22
2022-07-25T03:58:17.743Z,23.29
2022-07-25T04:00:47.891Z,23.35
2022-07-25T04:03:16.288Z,23.37
2022-07-25T04:05:47.583Z,23.37
2022-07-25T04:08:16.072Z,23.45
2022-07-25T04:10:44.133Z,23.47
2022-07-25T04:13:13.549Z,23.51
2022-07-25T04:15:41.620Z,23.50
2022-07-25T04:18:10.163Z,23.49
2022-07-25T04:20:44.643Z,23.52
2022-07-25T04:23:12.746Z,23.52
2022-07-25T04:25:41.050Z,23.52
2022-07-25T04:28:09.148Z,23.50
2022-07-25T04:30:38.729Z,23.56
2022-07-25T04:33:06.790Z,23.54
2022-07-25T04:35:34.882Z,23.56
2022-07-25T04:38:03.356Z,23.56
2022-07-25T04:40:31.749Z,23.58
2022-07-25T04:42:59.884Z,23.60
2022-07-25T04:45:28.356Z,23.62
2022-07-25T04:47:57.949Z,23.62
2022-07-25T04:50:26.234Z,23.65
2022-07-25T04:52:54.393Z,23.67
2022-07-25T04:55:23.090Z,23.70
2022-07-25T04:57:51.254Z,23.72
2022-07-25T05:00:19.836Z,23.78
2022-07-25T05:02:47.892Z,23.82
2022-07-25T05:05:21.410Z,23.84
2022-07-25T05:07:50.673Z,23.88
2022-07-25T05:10:19.042Z,23.93
2022-07-25T05:12:47.148Z,23.92
2022-07-25T05:15:15.320Z,23.97
2022-07-25T05:17:43.994Z,24.00
2022-07-25T05:20:13.690Z,24.07
2022-07-25T05:22:43.837Z,24.09
2022-07-25T05:25:12.904Z,24.09
2022-07-25T05:27:42.274Z,24.13
2022-07-25T05:30:12.781Z,24.19
2022-07-25T05:32:42.065Z,24.21
2022-07-25T05:35:11.698Z,24.27
2022-07-25T05:37:40.069Z,24.30
2022-07-25T05:40:10.291Z,24.39
2022-07-25T05:42:38.513Z,24.43
2022-07-25T05:45:08.283Z,24.46
2022-07-25T05:47:36.755Z,24.49
2022-07-25T05:50:05.903Z,24.52
2022-07-25T05:52:34.032Z,24.58
2022-07-25T05:55:02.084Z,24.62
2022-07-25T05:57:31.916Z,24.68
2022-07-25T05:59:59.971Z,24.68
2022-07-25T06:02:28.171Z,24.73
2022-07-25T06:04:56.353Z,24.78
2022-07-25T06:07:24.469Z,24.82
2022-07-25T06:09:52.588Z,24.90
2022-07-25T06:12:20.689Z,24.94
2022-07-25T06:14:54.612Z,25.05
2022-07-25T06:17:22.684Z,25.05
2022-07-25T06:19:50.809Z,25.13
2022-07-25T06:22:19.622Z,25.20
2022-07-25T06:24:47.688Z,25.31
2022-07-25T06:27:20.559Z,25.34
2022-07-25T06:29:49.897Z,25.38
2022-07-25T06:32:19.579Z,25.47
2022-07-25T06:34:47.673Z,25.54
2022-07-25T06:37:16.107Z,25.57
2022-07-25T06:39:46.062Z,25.67
2022-07-25T06:42:14.765Z,25.73
2022-07-25T06:44:43.178Z,25.80
2022-07-25T06:47:13.490Z,25.87
2022-07-25T06:49:43.727Z,25.98
2022-07-25T06:52:11.902Z,26.05
2022-07-25T06:54:40.487Z,26.19
2022-07-25T06:57:09.011Z,26.29
2022-07-25T06:59:37.163Z,26.38
2022-07-25T07:02:05.313Z,26.73
2022-07-25T07:04:33.410Z,26.63
2022-07-25T07:07:02.949Z,26.76
2022-07-25T07:09:31.118Z,26.88
2022-07-25T07:11:59.245Z,27.03
2022-07-25T07:14:28.120Z,27.19
2022-07-25T07:16:58.268Z,27.27
2022-07-25T07:19:26.335Z,27.39
2022-07-25T07:21:54.446Z,27.52
2022-07-25T07:24:25.104Z,27.71
2022-07-25T07:26:53.871Z,27.78
2022-07-25T07:29:22.387Z,27.92
2022-07-25T07:31:50.742Z,28.02
2022-07-25T07:34:19.100Z,28.10
2022-07-25T07:36:47.371Z,28.15
2022-07-25T07:39:16.609Z,28.24
2022-07-25T07:41:46.263Z,28.35
2022-07-25T07:44:14.478Z,28.37
2022-07-25T07:46:42.636Z,28.44
2022-07-25T07:49:11.502Z,28.57
2022-07-25T07:51:40.358Z,28.68
2022-07-25T07:54:28.277Z,28.76
2022-07-25T07:56:58.714Z,28.93
2022-07-25T07:59:26.842Z,29.09
2022-07-25T08:01:54.949Z,29.21
2022-07-25T08:04:23.093Z,29.33
2022-07-25T08:06:53.079Z,29.46
2022-07-25T08:09:21.253Z,29.59
2022-07-25T08:11:49.377Z,29.66
2022-07-25T08:14:19.044Z,29.78
2022-07-25T08:16:47.245Z,29.90
2022-07-25T08:19:15.293Z,30.03
2022-07-25T08:21:43.609Z,30.11
2022-07-25T08:24:15.515Z,30.13
2022-07-25T08:26:43.662Z,30.17
2022-07-25T08:29:19.157Z,30.27
2022-07-25T08:31:50.140Z,30.51
2022-07-25T08:34:19.493Z,30.62
2022-07-25T08:36:47.746Z,30.67
2022-07-25T08:39:15.905Z,30.75
2022-07-25T08:41:44.743Z,30.89
2022-07-25T08:44:15.167Z,31.02
2022-07-25T08:46:44.298Z,31.12
2022-07-25T08:49:13.975Z,31.16
2022-07-25T08:51:42.486Z,31.24
2022-07-25T08:54:11.668Z,31.31
2022-07-25T08:56:42.227Z,31.31
2022-07-25T08:59:10.772Z,31.43
2022-07-25T09:01:41.478Z,31.57
2022-07-25T09:04:10.888Z,31.52
2022-07-25T09:06:51.682Z,31.55
2022-07-25T09:09:20.033Z,31.56
2022-07-25T09:11:48.126Z,31.50
2022-07-25T09:14:16.216Z,31.56
2022-07-25T09:16:46.314Z,31.73
2022-07-25T09:19:18.075Z,31.85
2022-07-25T09:22:01.473Z,31.82
2022-07-25T09:24:30.290Z,31.87
2022-07-25T09:27:02.003Z,32.03
2022-07-25T09:29:34.969Z,32.04
2022-07-25T09:32:14.847Z,32.10
2022-07-25T09:34:45.787Z,32.37
2022-07-25T09:37:18.981Z,32.31
2022-07-25T09:39:49.435Z,32.32
2022-07-25T09:42:26.415Z,32.40
2022-07-25T09:45:06.386Z,32.47
2022-07-25T09:47:37.759Z,32.59
2022-07-25T09:50:08.523Z,32.71
2022-07-25T09:52:39.293Z,32.76
2022-07-25T09:55:10.139Z,32.84
2022-07-25T09:57:38.977Z,32.87
2022-07-25T10:00:10.136Z,32.96
2022-07-25T10:02:49.774Z,33.08
2022-07-25T10:05:32.567Z,33.19
2022-07-25T10:08:06.759Z,33.29
2022-07-25T10:10:41.269Z,33.41
2022-07-25T10:13:14.034Z,33.42
2022-07-25T10:15:49.085Z,33.42
2022-07-25T10:18:19.926Z,33.48
2022-07-25T10:20:51.032Z,33.51
2022-07-25T10:23:23.112Z,33.53
2022-07-25T10:26:03.885Z,33.56
2022-07-25T10:28:42.549Z,33.60
2022-07-25T10:31:22.042Z,33.69
2022-07-25T10:33:55.154Z,33.75
2022-07-25T10:36:24.507Z,33.77
2022-07-25T10:38:59.056Z,33.87
2022-07-25T10:41:28.847Z,33.96
2022-07-25T10:44:02.227Z,34.02
2022-07-25T10:46:32.493Z,34.13
2022-07-25T10:49:04.810Z,34.20
2022-07-25T10:51:40.947Z,34.25
2022-07-25T10:54:19.348Z,34.24
2022-07-25T10:56:57.488Z,34.34
2022-07-25T10:59:35.157Z,34.34
2022-07-25T11:02:05.537Z,34.38
2022-07-25T11:04:34.752Z,34.45
2022-07-25T11:07:10.540Z,34.57
2022-07-25T11:09:41.140Z,34.65
2022-07-25T11:12:10.785Z,34.65
2022-07-25T11:14:42.594Z,34.76
2022-07-25T11:17:15.729Z,34.69
2022-07-25T11:19:45.491Z,34.79
2022-07-25T11:22:14.184Z,34.88
2022-07-25T11:24:46.702Z,34.94
2022-07-25T11:27:24.452Z,35.12
2022-07-25T11:29:53.277Z,35.33
2022-07-25T11:32:21.876Z,35.28
2022-07-25T11:34:53.875Z,35.23
2022-07-25T11:37:22.816Z,35.23
2022-07-25T11:39:54.301Z,35.33
2022-07-25T11:42:22.915Z,35.43
2022-07-25T11:44:54.410Z,35.37
2022-07-25T11:47:30.758Z,35.25
2022-07-25T11:50:01.708Z,35.13
2022-07-25T11:52:32.973Z,35.06
2022-07-25T11:55:05.414Z,35.04
2022-07-25T11:57:35.592Z,35.18
2022-07-25T12:00:29.566Z,35.23
2022-07-25T12:03:09.409Z,35.18
2022-07-25T12:05:37.922Z,35.12
2022-07-25T12:08:12.390Z,35.12
2022-07-25T12:10:43.424Z,35.03
2022-07-25T12:13:25.455Z,34.86
2022-07-25T12:15:54.859Z,34.77
2022-07-25T12:18:23.061Z,34.73
2022-07-25T12:20:51.191Z,34.59
2022-07-25T12:23:21.649Z,34.51
2022-07-25T12:25:51.663Z,34.48
2022-07-25T12:28:19.826Z,34.35
2022-07-25T12:30:53.016Z,34.25
2022-07-25T12:33:24.248Z,34.08
2022-07-25T12:35:52.367Z,34.04
2022-07-25T12:38:20.693Z,33.98
2022-07-25T12:40:50.504Z,33.92
2022-07-25T12:43:22.683Z,33.87
2022-07-25T12:45:50.869Z,33.83
2022-07-25T12:48:18.989Z,33.99
2022-07-25T12:50:47.235Z,34.11
2022-07-25T12:53:15.364Z,34.13
2022-07-25T12:55:43.550Z,34.13
2022-07-25T12:58:15.903Z,34.14
2022-07-25T13:00:44.109Z,34.05
2022-07-25T13:03:15.442Z,34.10
2022-07-25T13:05:43.647Z,34.20
2022-07-25T13:08:11.711Z,34.28
2022-07-25T13:10:39.958Z,34.36
2022-07-25T13:13:08.135Z,34.40
2022-07-25T13:15:38.115Z,34.32
2022-07-25T13:18:06.484Z,34.26
2022-07-25T13:20:37.282Z,34.20
2022-07-25T13:23:05.550Z,34.30
2022-07-25T13:25:34.824Z,34.38
2022-07-25T13:28:04.047Z,34.48
2022-07-25T13:30:40.340Z,34.37
2022-07-25T13:33:09.990Z,34.21
2022-07-25T13:35:39.517Z,34.13
2022-07-25T13:38:10.938Z,33.99
2022-07-25T13:40:41.949Z,33.90
2022-07-25T13:43:12.489Z,33.83
2022-07-25T13:45:43.173Z,33.68
2022-07-25T13:48:28.865Z,33.56
2022-07-25T13:50:58.003Z,33.53
2022-07-25T13:53:29.961Z,33.46
2022-07-25T13:56:00.043Z,33.35
2022-07-25T13:58:28.741Z,33.27
2022-07-25T14:00:58.363Z,33.18
2022-07-25T14:03:26.529Z,33.08
2022-07-25T14:05:54.727Z,32.91
2022-07-25T14:08:26.271Z,32.90
2022-07-25T14:10:54.576Z,32.78
2022-07-25T14:13:22.691Z,32.73
2022-07-25T14:16:19.881Z,32.67
2022-07-25T14:18:48.104Z,32.65
2022-07-25T14:21:16.221Z,32.57
2022-07-25T14:23:44.328Z,32.57
2022-07-25T14:26:12.497Z,32.63
2022-07-25T14:28:40.584Z,32.78
2022-07-25T14:31:08.959Z,32.97
2022-07-25T14:33:40.111Z,33.08
2022-07-25T14:36:10.684Z,33.04
2022-07-25T14:38:38.822Z,33.19
2022-07-25T14:41:12.495Z,33.18
2022-07-25T14:43:41.521Z,33.14
2022-07-25T14:46:09.971Z,33.00
2022-07-25T14:48:40.233Z,32.93
2022-07-25T14:51:08.739Z,32.85
2022-07-25T14:53:37.340Z,32.83
2022-07-25T14:56:07.536Z,32.78
2022-07-25T14:58:36.224Z,32.79
2022-07-25T15:01:04.662Z,32.72
2022-07-25T15:03:32.893Z,32.70
2022-07-25T15:06:02.418Z,32.70
2022-07-25T15:08:30.773Z,32.69
2022-07-25T15:10:58.857Z,32.62
2022-07-25T15:13:31.882Z,32.73
2022-07-25T15:16:00.754Z,32.73
2022-07-25T15:18:29.265Z,32.65
2022-07-25T15:20:57.598Z,32.53
2022-07-25T15:23:30.315Z,32.42
2022-07-25T15:26:03.801Z,32.38
2022-07-25T15:28:33.797Z,32.30
2022-07-25T15:31:01.963Z,32.09
2022-07-25T15:33:30.392Z,32.04
2022-07-25T15:35:59.174Z,32.01
2022-07-25T15:38:30.712Z,32.08
2022-07-25T15:40:59.498Z,32.00
2022-07-25T15:43:28.207Z,31.98
2022-07-25T15:45:56.343Z,31.90
2022-07-25T15:48:24.928Z,31.82
2022-07-25T15:50:53.202Z,31.88
2022-07-25T15:53:21.334Z,31.87
2022-07-25T15:55:50.906Z,31.91
2022-07-25T15:58:18.997Z,31.95
2022-07-25T16:00:47.260Z,31.98
2022-07-25T16:03:15.722Z,31.96
2022-07-25T16:05:45.624Z,31.92
2022-07-25T16:08:14.327Z,31.95
2022-07-25T16:10:42.778Z,31.98
2022-07-25T16:13:12.207Z,31.98
2022-07-25T16:15:41.670Z,31.95
2022-07-25T16:18:09.819Z,31.94
2022-07-25T16:20:37.986Z,31.92
2022-07-25T16:23:06.103Z,32.01
2022-07-25T16:25:34.237Z,31.97
2022-07-25T16:28:02.376Z,31.97
2022-07-25T16:30:31.845Z,31.99
2022-07-25T16:33:00.313Z,31.93
2022-07-25T16:35:28.391Z,31.94
2022-07-25T16:37:56.446Z,31.88
2022-07-25T16:40:28.703Z,31.88
2022-07-25T16:42:59.598Z,31.89
2022-07-25T16:45:28.670Z,31.94
2022-07-25T16:47:58.356Z,32.10
2022-07-25T16:50:26.451Z,32.00
2022-07-25T16:52:54.849Z,31.96
2022-07-25T16:55:23.433Z,32.00
2022-07-25T16:57:51.569Z,31.83
2022-07-25T17:00:20.822Z,31.74
2022-07-25T17:02:49.648Z,31.68
2022-07-25T17:05:19.572Z,31.75
2022-07-25T17:07:57.028Z,31.76
2022-07-25T17:10:27.446Z,31.76
2022-07-25T17:12:55.647Z,31.67
2022-07-25T17:15:24.072Z,31.53
2022-07-25T17:17:52.243Z,31.41
2022-07-25T17:20:21.939Z,31.45
2022-07-25T17:22:50.056Z,31.43
2022-07-25T17:25:18.100Z,31.45
2022-07-25T17:27:46.294Z,31.40
2022-07-25T17:30:14.594Z,31.43
2022-07-25T17:32:42.694Z,31.34
2022-07-25T17:35:11.105Z,31.26
2022-07-25T17:37:42.356Z,31.23
2022-07-25T17:40:11.853Z,31.23
2022-07-25T17:42:45.063Z,31.17
2022-07-25T17:45:14.416Z,31.16
2022-07-25T17:47:43.451Z,31.11
2022-07-25T17:50:12.176Z,31.01
2022-07-25T17:52:41.657Z,31.01
2022-07-25T17:55:11.974Z,30.98
2022-07-25T17:57:43.062Z,30.93
2022-07-25T18:00:14.132Z,30.77
2022-07-25T18:02:42.574Z,30.69
2022-07-25T18:05:10.959Z,30.65
2022-07-25T18:07:45.118Z,30.66
2022-07-25T18:10:14.740Z,30.61
2022-07-25T18:12:43.037Z,30.55
2022-07-25T18:15:14.259Z,30.42
2022-07-25T18:17:43.745Z,30.33
2022-07-25T18:20:39.873Z,30.28
2022-07-25T18:23:09.492Z,30.27
2022-07-25T18:25:37.869Z,30.18
2022-07-25T18:28:06.984Z,30.15
2022-07-25T18:30:35.110Z,30.04
2022-07-25T18:33:03.183Z,29.98
2022-07-25T18:35:31.305Z,29.93
2022-07-25T18:37:59.452Z,29.70
2022-07-25T18:40:29.429Z,29.69
2022-07-25T18:42:57.523Z,29.66
2022-07-25T18:45:25.923Z,29.58
2022-07-25T18:47:55.133Z,29.53
2022-07-25T18:50:23.215Z,29.45
2022-07-25T18:52:51.263Z,29.34
2022-07-25T18:55:19.386Z,29.35
2022-07-25T18:57:48.956Z,29.34
2022-07-25T19:00:17.839Z,29.28
2022-07-25T19:02:46.505Z,29.30
2022-07-25T19:05:14.941Z,29.23
2022-07-25T19:07:43.384Z,29.15
2022-07-25T19:10:12.429Z,29.10
2022-07-25T19:12:40.662Z,29.06
2022-07-25T19:15:10.953Z,29.04
2022-07-25T19:17:39.461Z,28.93
2022-07-25T19:20:11.106Z,28.92
2022-07-25T19:22:39.382Z,28.81
2022-07-25T19:25:11.785Z,28.78
2022-07-25T19:27:41.146Z,28.71
2022-07-25T19:30:17.197Z,28.65
2022-07-25T19:32:47.137Z,28.58
2022-07-25T19:35:15.579Z,28.58
2022-07-25T19:37:43.669Z,28.48
2022-07-25T19:40:13.074Z,28.40
2022-07-25T19:42:42.529Z,28.28
2022-07-25T19:45:12.536Z,28.30
2022-07-25T19:47:40.631Z,28.24
2022-07-25T19:50:09.796Z,28.25
2022-07-25T19:52:38.210Z,28.24
2022-07-25T19:55:07.562Z,28.17
2022-07-25T19:57:38.686Z,28.14
2022-07-25T20:00:08.693Z,28.12
2022-07-25T20:02:41.709Z,28.09
2022-07-25T20:05:11.761Z,28.07
2022-07-25T20:07:43.184Z,28.04
2022-07-25T20:10:11.728Z,27.97
2022-07-25T20:12:41.485Z,27.88
2022-07-25T20:15:10.229Z,27.81
2022-07-25T20:17:39.689Z,27.78
2022-07-25T20:20:09.218Z,27.79
2022-07-25T20:22:38.420Z,27.71
2022-07-25T20:25:08.523Z,27.70
2022-07-25T20:27:42.108Z,27.65
2022-07-25T20:30:12.403Z,27.64
2022-07-25T20:32:41.896Z,27.59
2022-07-25T20:35:09.956Z,27.56
2022-07-25T20:37:38.196Z,27.53
2022-07-25T20:40:08.939Z,27.47
2022-07-25T20:42:38.180Z,27.43
2022-07-25T20:45:08.053Z,27.40
2022-07-25T20:47:36.130Z,27.36
2022-07-25T20:50:06.548Z,27.37
2022-07-25T20:52:34.648Z,27.32
2022-07-25T20:55:06.770Z,27.32
2022-07-25T20:57:35.477Z,27.20
2022-07-25T21:00:07.375Z,27.24
2022-07-25T21:02:38.916Z,27.17
2022-07-25T21:05:09.969Z,27.14
2022-07-25T21:07:38.036Z,27.07
2022-07-25T21:10:07.409Z,27.06
2022-07-25T21:12:35.613Z,26.96
2022-07-25T21:15:03.788Z,26.95
2022-07-25T21:17:31.853Z,26.99
2022-07-25T21:20:00.401Z,26.96
2022-07-25T21:22:30.816Z,26.93
2022-07-25T21:24:59.045Z,26.87
2022-07-25T21:27:27.136Z,26.88
2022-07-25T21:29:55.347Z,26.86
2022-07-25T21:32:23.508Z,26.77
2022-07-25T21:34:51.914Z,26.76
2022-07-25T21:37:20.008Z,26.76
2022-07-25T21:39:49.431Z,26.79
2022-07-25T21:42:17.816Z,26.76
2022-07-25T21:44:46.480Z,26.69
2022-07-25T21:47:14.630Z,26.65
2022-07-25T21:50:00.580Z,26.65
2022-07-25T21:52:31.334Z,26.60
2022-07-25T21:55:06.455Z,26.57
2022-07-25T21:57:35.984Z,26.54
2022-07-25T22:00:33.519Z,26.55
2022-07-25T22:03:26.752Z,26.39
2022-07-25T22:05:54.989Z,26.44
2022-07-25T22:08:23.092Z,26.40
2022-07-25T22:10:53.079Z,26.42
2022-07-25T22:13:21.364Z,26.39
2022-07-25T22:15:49.524Z,26.37
2022-07-25T22:18:17.621Z,26.39
2022-07-25T22:20:45.715Z,26.34
2022-07-25T22:23:13.771Z,26.31
2022-07-25T22:25:41.843Z,26.26
2022-07-25T22:28:14.226Z,26.23
2022-07-25T22:30:42.728Z,26.22
2022-07-25T22:33:10.774Z,26.22
2022-07-25T22:35:39.499Z,26.17
2022-07-25T22:38:09.042Z,26.10
2022-07-25T22:40:37.545Z,26.07
2022-07-25T22:43:05.635Z,26.00
2022-07-25T22:45:37.615Z,26.00
2022-07-25T22:48:08.278Z,25.93
2022-07-25T22:50:36.418Z,25.92
2022-07-25T22:53:04.611Z,25.90
2022-07-25T22:55:32.710Z,25.86
2022-07-25T22:58:00.829Z,25.83
2022-07-25T23:00:29.025Z,25.79
2022-07-25T23:02:58.612Z,25.79
2022-07-25T23:05:26.775Z,25.80
2022-07-25T23:07:54.977Z,25.75
2022-07-25T23:10:23.025Z,25.74
2022-07-25T23:12:51.068Z,25.75
2022-07-25T23:15:19.183Z,25.71
2022-07-25T23:17:47.201Z,25.73
2022-07-25T23:20:16.634Z,25.70
2022-07-25T23:22:46.561Z,25.66
2022-07-25T23:25:19.611Z,25.63
2022-07-25T23:27:47.764Z,25.64
2022-07-25T23:30:16.945Z,25.54
2022-07-25T23:32:45.110Z,25.54
2022-07-25T23:35:13.162Z,25.58
2022-07-25T23:37:42.802Z,25.65
2022-07-25T23:40:13.027Z,25.62
2022-07-25T23:42:41.137Z,25.58
2022-07-25T23:45:11.567Z,25.61
2022-07-25T23:47:40.721Z,25.64
2022-07-25T23:50:12.499Z,25.60
2022-07-25T23:52:42.187Z,25.60
2022-07-25T23:55:11.155Z,25.62
2022-07-25T23:57:39.207Z,25.55
